Kezdőlap
METAR-TAF:

METAR-TAF

Repülőterek :

Voronyezs, Oroszország

földrajzi szélesség: 51-39N, földrajzi hosszúság: 039-15E, magasság: 154 m

Jelenlegi meteorológiai megfigyelések

A jelentés 30 perccel ezelõtt készült, 10:00 UTC
Északi szél 6 kt, nyugat-északnyugati és északkeleti között változik
Hőmérséklet 19°C
Páratartalom 21%
Légköri nyomás 1027 hPa
Látótávolság 10 km, vagy több
felhőtlen 1500 m magasságban, és nincs gomolyfelhõ

METAR: UUOO 231000Z 35003MPS 300V040 CAVOK 19/M04 Q1027 R30/090070 NOSIG RMK QFE756

Idő: 13:30 (10:30 UTC)

Előrejelzés

A jelentés 2 órával és 31 perccel ezelõtt készült, 07:59 UTC
Az előrejelzés 23-én 09 óra UTC és 23-én 18 óra UTC között érvényes
Északnyugati szél 6 kt
Látótávolság 10 km, vagy több
felhőtlen 1500 m magasságban, és nincs gomolyfelhõ

TAF: UUOO 230759Z 2309/2318 32003MPS CAVOK

Meteorológiai megfigyelések és előrejelzések több, mint 4000 repülőtéren (METAR és TAF jelentéseket).

A térképen piros és sárga pontok jelzik az elérhető meteorológiai állomásokat.

Mozgassa az egeret a pont fölött, hogy megjelenjen az állomás neve.

Azután kattintson az időjárási megfigyelések és előrejelzések megtekintéséhez.

A térkép megváltoztatása: kattintson a fekete keresztel jelölt zöld gombra ráközelítéshez, a vonallal jelölt zöld gombra távolításhoz, vagy a zöld nyilakra a szomszédos térképek eléréséhez.


METAR-TAF: